createdAt,value
2023-02-24T00:02:22.461Z,2.90
2023-02-24T00:04:52.821Z,3.00
2023-02-24T00:07:23.109Z,2.90
2023-02-24T00:09:51.657Z,3.00
2023-02-24T00:12:20.844Z,3.00
2023-02-24T00:14:49.456Z,3.10
2023-02-24T00:17:18.252Z,3.10
2023-02-24T00:19:47.659Z,3.20
2023-02-24T00:22:16.271Z,3.20
2023-02-24T00:24:51.363Z,3.20
2023-02-24T00:27:19.863Z,3.20
2023-02-24T00:29:48.616Z,3.30
2023-02-24T00:32:17.289Z,3.20
2023-02-24T00:34:46.650Z,3.20
2023-02-24T00:37:15.687Z,3.20
2023-02-24T00:39:44.849Z,3.10
2023-02-24T00:42:15.174Z,3.10
2023-02-24T00:44:46.979Z,3.10
2023-02-24T00:47:17.707Z,3.20
2023-02-24T00:49:48.483Z,3.20
2023-02-24T00:52:19.238Z,3.10
2023-02-24T00:54:49.512Z,3.20
2023-02-24T00:57:21.703Z,3.10
2023-02-24T00:59:52.010Z,3.20
2023-02-24T01:02:21.657Z,3.20
2023-02-24T01:04:51.168Z,3.20
2023-02-24T01:07:19.852Z,3.30
2023-02-24T01:09:51.865Z,3.30
2023-02-24T01:12:41.152Z,3.40
2023-02-24T01:15:11.370Z,3.40
2023-02-24T01:17:39.970Z,3.40
2023-02-24T01:20:16.730Z,3.40
2023-02-24T01:22:46.716Z,3.50
2023-02-24T01:25:15.872Z,3.50
2023-02-24T01:27:46.059Z,3.50
2023-02-24T01:30:16.460Z,3.50
2023-02-24T01:32:47.021Z,3.40
2023-02-24T01:35:16.206Z,3.50
2023-02-24T01:37:45.853Z,3.40
2023-02-24T01:40:21.356Z,3.50
2023-02-24T01:42:51.951Z,3.50
2023-02-24T01:45:26.567Z,3.50
2023-02-24T01:47:58.123Z,3.60
2023-02-24T01:50:28.097Z,3.60
2023-02-24T01:53:01.524Z,3.70
2023-02-24T01:55:34.842Z,3.70
2023-02-24T01:58:10.910Z,3.70
2023-02-24T02:00:45.522Z,3.70
2023-02-24T02:03:29.071Z,3.80
2023-02-24T02:06:04.689Z,3.70
2023-02-24T02:08:57.305Z,3.80
2023-02-24T02:11:26.620Z,3.70
2023-02-24T02:13:57.153Z,3.70
2023-02-24T02:16:51.652Z,3.70
2023-02-24T02:19:59.971Z,3.70
2023-02-24T02:22:57.382Z,3.60
2023-02-24T02:25:35.326Z,3.60
2023-02-24T02:28:31.882Z,3.50
2023-02-24T02:31:36.781Z,3.50
2023-02-24T02:34:13.441Z,3.50
2023-02-24T02:37:02.356Z,3.50
2023-02-24T02:39:43.437Z,3.50
2023-02-24T02:42:19.117Z,3.50
2023-02-24T02:44:56.235Z,3.60
2023-02-24T02:47:33.088Z,3.60
2023-02-24T02:50:09.770Z,3.60
2023-02-24T02:52:42.515Z,3.70
2023-02-24T02:55:16.547Z,3.70
2023-02-24T02:57:49.102Z,3.80
2023-02-24T03:00:23.246Z,3.80
2023-02-24T03:02:56.295Z,3.80
2023-02-24T03:05:32.020Z,3.90
2023-02-24T03:08:04.985Z,3.90
2023-02-24T03:10:35.071Z,3.80
2023-02-24T03:13:07.495Z,3.90
2023-02-24T03:15:42.245Z,3.90
2023-02-24T03:18:19.007Z,3.90
2023-02-24T03:20:53.661Z,4.00
2023-02-24T03:23:27.581Z,4.10
2023-02-24T03:26:00.031Z,4.10
2023-02-24T03:28:35.798Z,4.10
2023-02-24T03:31:11.092Z,4.20
2023-02-24T03:33:45.014Z,4.10
2023-02-24T03:36:15.379Z,4.20
2023-02-24T03:38:49.546Z,4.20
2023-02-24T03:41:18.969Z,4.10
2023-02-24T03:43:50.829Z,4.20
2023-02-24T03:46:19.780Z,4.20
2023-02-24T03:48:51.943Z,4.20
2023-02-24T03:51:23.852Z,4.20
2023-02-24T03:54:05.834Z,4.20
2023-02-24T03:56:47.428Z,4.20
2023-02-24T03:59:28.103Z,4.20
2023-02-24T04:02:03.580Z,4.20
2023-02-24T04:04:39.124Z,4.20
2023-02-24T04:07:16.585Z,4.20
2023-02-24T04:09:52.306Z,4.20
2023-02-24T04:12:28.044Z,4.20
2023-02-24T04:14:59.865Z,4.30
2023-02-24T04:17:33.483Z,4.20
2023-02-24T04:20:13.001Z,4.20
2023-02-24T04:22:45.284Z,4.20
2023-02-24T04:25:15.944Z,4.20
2023-02-24T04:27:45.447Z,4.30
2023-02-24T04:30:15.286Z,4.20
2023-02-24T04:32:44.785Z,4.20
2023-02-24T04:35:17.252Z,4.30
2023-02-24T04:37:47.277Z,4.30
2023-02-24T04:40:18.914Z,4.30
2023-02-24T04:42:50.376Z,4.30
2023-02-24T04:45:21.814Z,4.30
2023-02-24T04:47:53.213Z,4.30
2023-02-24T04:50:26.246Z,4.40
2023-02-24T04:52:57.739Z,4.40
2023-02-24T04:55:29.726Z,4.40
2023-02-24T04:57:59.066Z,4.50
2023-02-24T05:00:33.661Z,4.40
2023-02-24T05:03:03.280Z,4.50
2023-02-24T05:05:33.852Z,4.50
2023-02-24T05:08:06.683Z,4.50
2023-02-24T05:10:39.123Z,4.50
2023-02-24T05:13:09.551Z,4.60
2023-02-24T05:15:42.097Z,4.60
2023-02-24T05:18:15.061Z,4.60
2023-02-24T05:21:11.049Z,4.60
2023-02-24T05:23:44.606Z,4.60
2023-02-24T05:26:17.283Z,4.70
2023-02-24T05:28:49.477Z,4.80
2023-02-24T05:31:20.978Z,4.80
2023-02-24T05:33:54.723Z,4.80
2023-02-24T05:36:25.664Z,4.80
2023-02-24T05:38:59.677Z,4.80
2023-02-24T05:41:32.870Z,4.90
2023-02-24T05:44:04.934Z,4.90
2023-02-24T05:46:38.870Z,4.90
2023-02-24T05:49:10.113Z,5.00
2023-02-24T05:51:43.649Z,5.00
2023-02-24T05:54:15.350Z,5.10
2023-02-24T05:56:44.782Z,5.10
2023-02-24T05:59:18.430Z,5.10
2023-02-24T06:01:47.250Z,5.20
2023-02-24T06:04:28.110Z,5.20
2023-02-24T06:06:56.734Z,5.30
2023-02-24T06:09:26.705Z,5.30
2023-02-24T06:11:55.418Z,5.40
2023-02-24T06:14:23.996Z,5.40
2023-02-24T06:16:52.710Z,5.40
2023-02-24T06:19:21.337Z,5.50
2023-02-24T06:21:52.834Z,5.50
2023-02-24T06:24:21.736Z,5.60
2023-02-24T06:26:53.954Z,5.70
2023-02-24T06:29:30.416Z,5.70
2023-02-24T06:31:59.637Z,5.80
2023-02-24T06:34:28.691Z,5.90
2023-02-24T06:36:58.804Z,5.90
2023-02-24T06:39:27.379Z,6.00
2023-02-24T06:42:04.135Z,6.10
2023-02-24T06:44:32.840Z,6.20
2023-02-24T06:47:01.934Z,6.30
2023-02-24T06:49:31.816Z,6.30
2023-02-24T06:52:01.213Z,6.40
2023-02-24T06:54:30.746Z,6.40
2023-02-24T06:57:00.863Z,6.50
2023-02-24T06:59:29.949Z,6.50
2023-02-24T07:02:00.298Z,6.60
2023-02-24T07:04:29.192Z,6.70
2023-02-24T07:07:03.549Z,6.70
2023-02-24T07:09:33.362Z,6.70
2023-02-24T07:12:04.843Z,6.70
2023-02-24T07:14:33.455Z,6.80
2023-02-24T07:17:02.108Z,6.80
2023-02-24T07:19:32.605Z,6.80
2023-02-24T07:22:03.910Z,6.80
2023-02-24T07:24:36.747Z,6.90
2023-02-24T07:27:09.708Z,7.00
2023-02-24T07:29:39.265Z,7.00
2023-02-24T07:32:10.053Z,7.10
2023-02-24T07:34:41.045Z,7.10
2023-02-24T07:37:10.449Z,7.10
2023-02-24T07:39:40.929Z,7.10
2023-02-24T07:42:13.580Z,7.20
2023-02-24T07:44:44.729Z,7.20
2023-02-24T07:47:13.805Z,7.30
2023-02-24T07:49:42.589Z,7.30
2023-02-24T07:52:11.831Z,7.30
2023-02-24T07:54:40.647Z,7.30
2023-02-24T07:57:14.117Z,7.40
2023-02-24T07:59:47.721Z,7.40
2023-02-24T08:02:17.149Z,7.50
2023-02-24T08:04:50.678Z,7.60
2023-02-24T08:07:25.290Z,7.70
2023-02-24T08:10:24.597Z,7.70
2023-02-24T08:12:56.034Z,7.80
2023-02-24T08:15:34.359Z,7.80
2023-02-24T08:18:03.454Z,7.80
2023-02-24T08:20:52.283Z,7.80
2023-02-24T08:23:23.717Z,7.90
2023-02-24T08:25:53.935Z,7.90
2023-02-24T08:28:27.098Z,7.90
2023-02-24T08:30:55.823Z,8.00
2023-02-24T08:33:28.593Z,8.00
2023-02-24T08:36:02.479Z,8.10
2023-02-24T08:38:42.285Z,8.10
2023-02-24T08:41:18.514Z,8.20
2023-02-24T08:43:49.991Z,8.40
2023-02-24T08:46:26.861Z,8.50
2023-02-24T08:48:57.052Z,8.40
2023-02-24T08:51:29.139Z,8.40
2023-02-24T08:54:00.275Z,8.30
2023-02-24T08:56:30.804Z,8.30
2023-02-24T08:59:05.913Z,8.20
2023-02-24T09:01:36.835Z,8.20
2023-02-24T09:04:09.224Z,8.10
2023-02-24T09:06:41.432Z,8.10
2023-02-24T09:09:21.072Z,8.10
2023-02-24T09:11:56.715Z,8.10
2023-02-24T09:14:29.511Z,8.10
2023-02-24T09:17:11.569Z,8.20
2023-02-24T09:20:02.384Z,8.20
2023-02-24T09:22:33.191Z,8.20
2023-02-24T09:25:19.191Z,8.20
2023-02-24T09:27:52.679Z,8.30
2023-02-24T09:30:37.629Z,8.30
2023-02-24T09:33:21.549Z,8.20
2023-02-24T09:35:53.097Z,8.20
2023-02-24T09:38:45.597Z,8.20
2023-02-24T09:41:32.135Z,8.10
2023-02-24T09:44:18.743Z,8.10
2023-02-24T09:46:55.058Z,8.10
2023-02-24T09:49:28.200Z,8.10
2023-02-24T09:52:09.155Z,8.10
2023-02-24T09:54:39.008Z,8.10
2023-02-24T09:57:17.227Z,8.20
2023-02-24T10:00:01.976Z,8.20
2023-02-24T10:03:00.241Z,8.30
2023-02-24T10:05:38.887Z,8.40
2023-02-24T10:08:18.160Z,8.40
2023-02-24T10:11:07.087Z,8.40
2023-02-24T10:13:38.939Z,8.30
2023-02-24T10:16:12.526Z,8.30
2023-02-24T10:18:48.630Z,8.30
2023-02-24T10:21:30.899Z,8.30
2023-02-24T10:24:19.638Z,8.30
2023-02-24T10:27:00.916Z,8.30
2023-02-24T10:29:55.718Z,8.40
2023-02-24T10:32:34.218Z,8.40
2023-02-24T10:35:06.392Z,8.40
2023-02-24T10:37:35.189Z,8.40
2023-02-24T10:40:10.807Z,8.40
2023-02-24T10:42:46.137Z,8.30
2023-02-24T10:45:23.977Z,8.30
2023-02-24T10:47:58.117Z,8.20
2023-02-24T10:50:32.802Z,8.30
2023-02-24T10:53:26.843Z,8.30
2023-02-24T10:56:15.479Z,8.40
2023-02-24T10:58:57.054Z,8.50
2023-02-24T11:01:43.915Z,8.70
2023-02-24T11:04:33.802Z,8.60
2023-02-24T11:07:12.003Z,8.50
2023-02-24T11:09:52.616Z,8.40
2023-02-24T11:12:41.101Z,8.30
2023-02-24T11:15:38.964Z,8.30
2023-02-24T11:18:10.711Z,8.40
2023-02-24T11:20:49.482Z,8.40
2023-02-24T11:23:24.919Z,8.50
2023-02-24T11:25:58.405Z,8.50
2023-02-24T11:28:53.640Z,8.50
2023-02-24T11:31:36.435Z,8.50
2023-02-24T11:34:11.565Z,8.60
2023-02-24T11:36:54.657Z,8.70
2023-02-24T11:39:53.552Z,8.50
2023-02-24T11:42:27.199Z,8.50
2023-02-24T11:45:01.314Z,8.40
2023-02-24T11:47:37.559Z,8.30
2023-02-24T11:50:29.973Z,8.50
2023-02-24T11:53:03.216Z,8.30
2023-02-24T11:55:39.468Z,8.30
2023-02-24T11:58:18.991Z,8.30
2023-02-24T12:00:55.306Z,8.30
2023-02-24T12:03:31.717Z,8.30
2023-02-24T12:06:14.117Z,8.40
2023-02-24T12:08:45.900Z,8.60
2023-02-24T12:11:22.723Z,8.80
2023-02-24T12:13:57.806Z,8.90
2023-02-24T12:16:33.603Z,9.10
2023-02-24T12:19:18.690Z,9.30
2023-02-24T12:21:54.131Z,9.40
2023-02-24T12:24:22.909Z,9.50
2023-02-24T12:27:03.665Z,9.50
2023-02-24T12:30:06.777Z,9.70
2023-02-24T12:32:57.752Z,9.80
2023-02-24T12:35:34.360Z,9.90
2023-02-24T12:38:19.870Z,9.90
2023-02-24T12:40:57.197Z,9.80
2023-02-24T12:43:34.449Z,9.80
2023-02-24T12:46:15.194Z,9.80
2023-02-24T12:49:12.431Z,9.70
2023-02-24T12:51:50.465Z,9.50
2023-02-24T12:54:30.730Z,9.40
2023-02-24T12:57:08.509Z,9.60
2023-02-24T12:59:41.615Z,9.80
2023-02-24T13:02:21.586Z,9.90
2023-02-24T13:04:59.952Z,9.80
2023-02-24T13:07:50.083Z,9.70
2023-02-24T13:10:31.605Z,9.80
2023-02-24T13:13:11.888Z,9.90
2023-02-24T13:15:52.163Z,9.90
2023-02-24T13:18:29.253Z,9.80
2023-02-24T13:21:11.387Z,9.70
2023-02-24T13:23:43.911Z,9.60
2023-02-24T13:26:12.580Z,9.50
2023-02-24T13:28:41.597Z,9.50
2023-02-24T13:31:16.670Z,9.30
2023-02-24T13:33:46.589Z,9.10
2023-02-24T13:36:20.730Z,9.00
2023-02-24T13:38:51.216Z,9.00
2023-02-24T13:41:42.030Z,9.00
2023-02-24T13:44:26.545Z,9.00
2023-02-24T13:47:23.789Z,9.00
2023-02-24T13:50:02.972Z,8.90
2023-02-24T13:52:45.929Z,8.70
2023-02-24T13:55:25.694Z,8.60
2023-02-24T13:58:29.212Z,8.50
2023-02-24T14:01:09.505Z,8.50
2023-02-24T14:03:41.917Z,8.60
2023-02-24T14:06:19.585Z,8.70
2023-02-24T14:08:55.064Z,8.90
2023-02-24T14:11:28.561Z,9.00
2023-02-24T14:13:59.086Z,9.10
2023-02-24T14:16:31.934Z,9.10
2023-02-24T14:19:03.741Z,9.00
2023-02-24T14:21:33.868Z,9.00
2023-02-24T14:24:05.527Z,8.90
2023-02-24T14:26:39.191Z,8.90
2023-02-24T14:29:10.320Z,8.90
2023-02-24T14:31:39.808Z,8.80
2023-02-24T14:34:19.903Z,8.80
2023-02-24T14:36:49.434Z,8.80
2023-02-24T14:39:20.860Z,8.80
2023-02-24T14:41:50.285Z,8.90
2023-02-24T14:44:25.162Z,8.90
2023-02-24T14:46:55.498Z,9.10
2023-02-24T14:49:28.535Z,8.70
2023-02-24T14:52:05.267Z,8.70
2023-02-24T14:54:44.885Z,8.60
2023-02-24T14:57:17.249Z,8.60
2023-02-24T14:59:49.979Z,8.40
2023-02-24T15:02:24.775Z,8.20
2023-02-24T15:04:58.456Z,8.00
2023-02-24T15:07:30.956Z,7.90
2023-02-24T15:10:00.660Z,7.80
2023-02-24T15:12:33.553Z,7.90
2023-02-24T15:15:08.262Z,7.90
2023-02-24T15:17:41.775Z,7.90
2023-02-24T15:20:35.107Z,7.80
2023-02-24T15:23:04.198Z,7.70
2023-02-24T15:25:44.005Z,7.70
2023-02-24T15:28:26.145Z,7.70
2023-02-24T15:31:03.440Z,7.60
2023-02-24T15:33:37.627Z,7.60
2023-02-24T15:36:12.647Z,7.60
2023-02-24T15:38:43.659Z,7.60
2023-02-24T15:41:13.944Z,7.60
2023-02-24T15:43:51.378Z,7.60
2023-02-24T15:46:29.498Z,7.60
2023-02-24T15:49:01.974Z,7.60
2023-02-24T15:51:38.451Z,7.50
2023-02-24T15:54:09.632Z,7.50
2023-02-24T15:56:41.899Z,7.40
2023-02-24T15:59:14.958Z,7.50
2023-02-24T16:01:43.583Z,7.50
2023-02-24T16:04:12.304Z,7.50
2023-02-24T16:06:54.292Z,7.50
2023-02-24T16:09:28.388Z,7.50
2023-02-24T16:11:58.030Z,7.50
2023-02-24T16:14:27.428Z,7.40
2023-02-24T16:16:56.288Z,7.40
2023-02-24T16:19:25.208Z,7.30
2023-02-24T16:21:55.429Z,7.30
2023-02-24T16:24:24.098Z,7.20
2023-02-24T16:26:52.721Z,7.10
2023-02-24T16:29:21.348Z,7.10
2023-02-24T16:31:50.096Z,7.20
2023-02-24T16:34:19.175Z,7.20
2023-02-24T16:36:48.453Z,7.10
2023-02-24T16:39:19.168Z,7.00
2023-02-24T16:41:47.695Z,6.90
2023-02-24T16:44:16.311Z,6.80
2023-02-24T16:46:46.336Z,6.80
2023-02-24T16:49:19.600Z,6.70
2023-02-24T16:51:48.380Z,6.60
2023-02-24T16:54:22.068Z,6.60
2023-02-24T16:56:51.003Z,6.60
2023-02-24T16:59:19.627Z,6.50
2023-02-24T17:01:48.217Z,6.50
2023-02-24T17:04:16.911Z,6.40
2023-02-24T17:06:45.570Z,6.40
2023-02-24T17:09:16.029Z,6.20
2023-02-24T17:11:46.252Z,6.20
2023-02-24T17:14:20.155Z,6.20
2023-02-24T17:16:49.300Z,6.20
2023-02-24T17:19:17.931Z,6.10
2023-02-24T17:21:46.991Z,6.10
2023-02-24T17:24:17.294Z,6.10
2023-02-24T17:26:48.344Z,6.10
2023-02-24T17:29:16.951Z,6.00
2023-02-24T17:31:45.701Z,5.90
2023-02-24T17:34:14.270Z,5.80
2023-02-24T17:36:42.809Z,5.70
2023-02-24T17:39:11.518Z,5.70
2023-02-24T17:41:40.244Z,5.60
2023-02-24T17:44:10.203Z,5.50
2023-02-24T17:46:38.947Z,5.40
2023-02-24T17:49:07.547Z,5.30
2023-02-24T17:51:36.228Z,5.30
2023-02-24T17:54:05.168Z,5.30
2023-02-24T17:56:33.753Z,5.20
2023-02-24T17:59:02.335Z,5.10
2023-02-24T18:01:32.381Z,5.00
2023-02-24T18:04:00.961Z,5.00
2023-02-24T18:06:29.585Z,5.00
2023-02-24T18:08:58.416Z,5.00
2023-02-24T18:11:27.049Z,4.90
2023-02-24T18:14:00.362Z,5.00
2023-02-24T18:16:30.268Z,4.90
2023-02-24T18:19:00.399Z,4.90
2023-02-24T18:21:28.985Z,4.80
2023-02-24T18:23:57.636Z,4.90
2023-02-24T18:26:26.650Z,4.80
2023-02-24T18:28:56.743Z,4.80
2023-02-24T18:31:28.220Z,4.90
2023-02-24T18:33:59.838Z,4.80
2023-02-24T18:36:28.630Z,4.80
2023-02-24T18:38:58.847Z,4.80
2023-02-24T18:41:27.580Z,4.90
2023-02-24T18:43:59.351Z,4.90
2023-02-24T18:46:29.130Z,4.90
2023-02-24T18:48:59.257Z,5.00
2023-02-24T18:51:29.284Z,4.80
2023-02-24T18:54:00.479Z,4.80
2023-02-24T18:56:31.293Z,4.80
2023-02-24T18:59:01.165Z,4.60
2023-02-24T19:01:31.719Z,4.60
2023-02-24T19:04:02.528Z,4.40
2023-02-24T19:06:33.652Z,4.30
2023-02-24T19:09:07.116Z,4.20
2023-02-24T19:11:36.349Z,4.10
2023-02-24T19:14:05.825Z,4.00
2023-02-24T19:16:35.208Z,4.00
2023-02-24T19:19:05.946Z,3.90
2023-02-24T19:21:35.966Z,4.00
2023-02-24T19:24:08.384Z,4.00
2023-02-24T19:26:37.236Z,4.00
2023-02-24T19:29:06.330Z,3.80
2023-02-24T19:31:35.577Z,3.70
2023-02-24T19:34:08.276Z,3.60
2023-02-24T19:36:38.091Z,3.40
2023-02-24T19:39:10.438Z,3.30
2023-02-24T19:41:39.167Z,3.10
2023-02-24T19:44:07.749Z,3.00
2023-02-24T19:46:36.647Z,2.90
2023-02-24T19:49:06.878Z,2.80
2023-02-24T19:51:35.604Z,2.70
2023-02-24T19:54:06.287Z,2.60
2023-02-24T19:56:37.011Z,2.60
2023-02-24T19:59:07.860Z,2.50
2023-02-24T20:01:36.805Z,2.40
2023-02-24T20:04:07.264Z,2.40
2023-02-24T20:06:37.949Z,2.50
2023-02-24T20:09:07.442Z,2.50
2023-02-24T20:11:37.878Z,2.50
2023-02-24T20:14:07.080Z,2.50
2023-02-24T20:16:37.424Z,2.50
2023-02-24T20:19:09.492Z,2.50
2023-02-24T20:21:39.934Z,2.50
2023-02-24T20:24:13.620Z,2.60
2023-02-24T20:26:43.438Z,2.60
2023-02-24T20:29:12.558Z,2.70
2023-02-24T20:31:41.248Z,2.70
2023-02-24T20:34:11.833Z,2.80
2023-02-24T20:36:42.065Z,2.80
2023-02-24T20:39:12.634Z,2.90
2023-02-24T20:41:42.341Z,3.00
2023-02-24T20:44:11.439Z,3.10
2023-02-24T20:46:41.962Z,3.10
2023-02-24T20:49:15.142Z,3.10
2023-02-24T20:51:44.805Z,3.20
2023-02-24T20:54:14.811Z,3.20
2023-02-24T20:56:44.895Z,3.30
2023-02-24T20:59:15.843Z,3.40
2023-02-24T21:01:47.130Z,3.50
2023-02-24T21:04:20.880Z,3.50
2023-02-24T21:06:51.838Z,3.60
2023-02-24T21:09:20.588Z,3.60
2023-02-24T21:11:49.192Z,3.60
2023-02-24T21:14:18.442Z,3.60
2023-02-24T21:16:47.315Z,3.60
2023-02-24T21:19:18.226Z,3.60
2023-02-24T21:21:46.799Z,3.60
2023-02-24T21:24:15.338Z,3.60
2023-02-24T21:26:44.055Z,3.60
2023-02-24T21:29:12.730Z,3.70
2023-02-24T21:31:42.925Z,3.70
2023-02-24T21:34:12.670Z,3.70
2023-02-24T21:36:42.620Z,3.70
2023-02-24T21:39:14.824Z,3.80
2023-02-24T21:41:43.765Z,3.80
2023-02-24T21:44:14.436Z,3.80
2023-02-24T21:46:43.199Z,3.80
2023-02-24T21:49:14.569Z,3.90
2023-02-24T21:51:45.998Z,3.90
2023-02-24T21:54:14.643Z,3.80
2023-02-24T21:56:43.662Z,3.90
2023-02-24T21:59:12.515Z,3.90
2023-02-24T22:01:43.269Z,3.90
2023-02-24T22:04:13.787Z,3.90
2023-02-24T22:06:44.952Z,4.00
2023-02-24T22:09:19.617Z,4.00
2023-02-24T22:11:50.181Z,4.00
2023-02-24T22:14:19.194Z,4.00
2023-02-24T22:16:47.716Z,4.00
2023-02-24T22:19:16.572Z,4.00
2023-02-24T22:21:46.894Z,4.10
2023-02-24T22:24:19.412Z,4.10
2023-02-24T22:26:48.159Z,4.10
2023-02-24T22:29:16.738Z,4.10
2023-02-24T22:31:49.603Z,4.20
2023-02-24T22:34:18.502Z,4.20
2023-02-24T22:36:48.578Z,4.20
2023-02-24T22:39:17.652Z,4.20
2023-02-24T22:41:47.746Z,4.20
2023-02-24T22:44:19.640Z,4.20
2023-02-24T22:46:48.618Z,4.20
2023-02-24T22:49:17.508Z,4.20
2023-02-24T22:51:47.544Z,4.30
2023-02-24T22:54:16.518Z,4.30
2023-02-24T22:56:45.426Z,4.30
2023-02-24T22:59:14.318Z,4.20
2023-02-24T23:01:44.162Z,4.20
2023-02-24T23:04:17.251Z,4.30
2023-02-24T23:06:48.308Z,4.30
2023-02-24T23:09:20.097Z,4.30
2023-02-24T23:11:49.041Z,4.30
2023-02-24T23:14:17.660Z,4.30
2023-02-24T23:16:47.431Z,4.30
2023-02-24T23:19:18.295Z,4.20
2023-02-24T23:21:50.403Z,4.30
2023-02-24T23:24:20.292Z,4.30
2023-02-24T23:26:51.484Z,4.20
2023-02-24T23:29:20.360Z,4.30
2023-02-24T23:31:49.335Z,4.30
2023-02-24T23:34:18.110Z,4.30
2023-02-24T23:36:48.789Z,4.30
2023-02-24T23:39:20.554Z,4.30
2023-02-24T23:41:49.665Z,4.30
2023-02-24T23:44:18.227Z,4.40
2023-02-24T23:46:46.813Z,4.30
2023-02-24T23:49:16.085Z,4.30
2023-02-24T23:51:48.971Z,4.30
2023-02-24T23:54:19.280Z,4.40
2023-02-24T23:56:48.201Z,4.30
2023-02-24T23:59:16.817Z,4.30
